Time;durP1;ratioP1;P1;durP2;ratioP2;P2;SDS_P1;SDS_P2;PMS_P1;PMS_P2;Temp;Humidity;BMP_temperature;BMP_pressure;BME280_temperature;BME280_humidity;BME280_pressure;Samples;Min_cycle;Max_cycle;Signal;HPM_P1;HPM_P2
2022/08/30 00:01:59;;;;;;;2.00;1.57;;;;;;;;;;6213731;23;20182;-81
2022/08/30 00:04:29;;;;;;;3.47;1.77;;;;;;;;;;6189183;23;20174;-81
2022/08/30 00:06:57;;;;;;;0.80;0.80;;;;;;;;;;6188729;23;20176;-81
2022/08/30 00:09:25;;;;;;;1.70;1.60;;;;;;;;;;6189012;23;20178;-81
2022/08/30 00:11:54;;;;;;;2.17;1.80;;;;;;;;;;6188585;23;20224;-81
2022/08/30 00:14:24;;;;;;;1.23;1.23;;;;;;;;;;6188945;23;20205;-81
2022/08/30 00:16:53;;;;;;;3.33;2.03;;;;;;;;;;6188470;23;20170;-81
2022/08/30 00:19:21;;;;;;;2.40;1.87;;;;;;;;;;6189175;23;20261;-81
2022/08/30 00:21:51;;;;;;;2.03;1.87;;;;;;;;;;6187503;23;20175;-81
2022/08/30 00:24:19;;;;;;;1.27;1.20;;;;;;;;;;6188602;23;20180;-81
2022/08/30 00:26:49;;;;;;;1.00;1.00;;;;;;;;;;6188309;23;20184;-81
2022/08/30 00:29:17;;;;;;;1.50;1.27;;;;;;;;;;6216837;23;20179;-81
2022/08/30 00:31:46;;;;;;;7.60;2.87;;;;;;;;;;6216904;23;20170;-82
2022/08/30 00:34:15;;;;;;;3.20;1.87;;;;;;;;;;6190350;23;20194;-82
2022/08/30 00:36:44;;;;;;;0.93;0.93;;;;;;;;;;6190816;23;20282;-82
2022/08/30 00:39:15;;;;;;;3.03;2.80;;;;;;;;;;6216773;23;20184;-82
2022/08/30 00:41:43;;;;;;;3.40;1.60;;;;;;;;;;6190465;23;20179;-82
2022/08/30 00:44:12;;;;;;;1.40;1.37;;;;;;;;;;6190319;23;20198;-82
2022/08/30 00:46:40;;;;;;;2.50;2.30;;;;;;;;;;6216852;23;20193;-82
2022/08/30 00:49:11;;;;;;;1.87;1.67;;;;;;;;;;6190308;23;20203;-82
2022/08/30 00:51:40;;;;;;;2.47;1.83;;;;;;;;;;6216869;23;20173;-82
2022/08/30 00:54:09;;;;;;;1.50;1.30;;;;;;;;;;6216608;23;20194;-82
2022/08/30 00:56:38;;;;;;;2.37;2.10;;;;;;;;;;6190098;23;20182;-82
2022/08/30 00:59:09;;;;;;;2.97;2.27;;;;;;;;;;6216945;23;20174;-82
2022/08/30 01:01:37;;;;;;;1.60;1.33;;;;;;;;;;6190462;23;20189;-82
2022/08/30 01:04:08;;;;;;;0.73;0.73;;;;;;;;;;6217071;23;20180;-83
2022/08/30 01:06:38;;;;;;;1.33;1.23;;;;;;;;;;6190719;23;20500;-82
2022/08/30 01:09:07;;;;;;;0.97;0.97;;;;;;;;;;6190333;23;20232;-82
2022/08/30 01:11:37;;;;;;;1.87;1.77;;;;;;;;;;6216347;23;20356;-83
2022/08/30 01:14:07;;;;;;;3.17;1.77;;;;;;;;;;6190663;23;20190;-82
2022/08/30 01:16:38;;;;;;;1.37;1.27;;;;;;;;;;6189647;23;20181;-82
2022/08/30 01:19:11;;;;;;;1.47;1.37;;;;;;;;;;6190116;23;20182;-82
2022/08/30 01:21:43;;;;;;;7.47;1.43;;;;;;;;;;6189821;23;20182;-83
2022/08/30 01:24:13;;;;;;;1.40;1.30;;;;;;;;;;6189660;23;20174;-82
2022/08/30 01:26:42;;;;;;;0.93;0.93;;;;;;;;;;6190253;23;20178;-82
2022/08/30 01:29:11;;;;;;;1.63;1.53;;;;;;;;;;6216432;23;20176;-82
2022/08/30 01:31:40;;;;;;;1.93;1.83;;;;;;;;;;6216132;23;20177;-82
2022/08/30 01:34:08;;;;;;;4.23;3.83;;;;;;;;;;6189711;23;20215;-82
2022/08/30 01:36:38;;;;;;;0.83;0.83;;;;;;;;;;6216185;23;20201;-83
2022/08/30 01:39:15;;;;;;;0.80;0.80;;;;;;;;;;6189631;23;20181;-82
2022/08/30 01:41:44;;;;;;;0.77;0.60;;;;;;;;;;6216050;23;20181;-82
2022/08/30 01:44:14;;;;;;;0.60;0.60;;;;;;;;;;6190182;23;20178;-82
2022/08/30 01:46:44;;;;;;;4.47;2.30;;;;;;;;;;6189703;23;20174;-82
2022/08/30 01:49:13;;;;;;;2.03;1.93;;;;;;;;;;6216561;23;20173;-82
2022/08/30 01:51:42;;;;;;;1.80;1.63;;;;;;;;;;6189552;23;20174;-82
2022/08/30 01:54:10;;;;;;;1.80;1.57;;;;;;;;;;6189428;23;20197;-83
2022/08/30 01:56:40;;;;;;;1.43;1.27;;;;;;;;;;6189724;23;20238;-82
2022/08/30 01:59:09;;;;;;;3.07;1.50;;;;;;;;;;6189949;23;20201;-82
2022/08/30 02:01:38;;;;;;;2.00;1.73;;;;;;;;;;6189851;23;20181;-83
2022/08/30 02:04:08;;;;;;;0.60;0.60;;;;;;;;;;6190127;23;20171;-82
2022/08/30 02:06:38;;;;;;;0.60;0.60;;;;;;;;;;6189634;23;20178;-82
2022/08/30 02:09:06;;;;;;;1.77;1.60;;;;;;;;;;6189896;23;20208;-82
2022/08/30 02:11:35;;;;;;;0.90;0.90;;;;;;;;;;6189472;23;20174;-82
2022/08/30 02:14:06;;;;;;;1.70;1.60;;;;;;;;;;6215680;23;20194;-81
2022/08/30 02:16:34;;;;;;;0.80;0.80;;;;;;;;;;6189990;23;20179;-82
2022/08/30 02:19:03;;;;;;;1.13;1.10;;;;;;;;;;6189360;23;20170;-81
2022/08/30 02:21:31;;;;;;;1.03;1.03;;;;;;;;;;6215843;23;20231;-81
2022/08/30 02:23:59;;;;;;;1.80;1.50;;;;;;;;;;6189681;23;20183;-82
2022/08/30 02:26:28;;;;;;;8.37;1.27;;;;;;;;;;6189675;23;20189;-82
2022/08/30 02:28:57;;;;;;;2.17;0.87;;;;;;;;;;6189279;23;20200;-82
2022/08/30 02:31:27;;;;;;;1.10;1.03;;;;;;;;;;6189682;23;20172;-82
2022/08/30 02:33:56;;;;;;;1.33;1.27;;;;;;;;;;6189226;23;20251;-82
2022/08/30 02:36:24;;;;;;;2.97;2.73;;;;;;;;;;6189309;23;20195;-82
2022/08/30 02:38:53;;;;;;;3.17;2.93;;;;;;;;;;6188954;23;20178;-82
2022/08/30 02:41:22;;;;;;;1.30;1.30;;;;;;;;;;6189691;23;20201;-82
2022/08/30 02:43:57;;;;;;;0.60;0.60;;;;;;;;;;6189125;23;20213;-82
2022/08/30 02:46:25;;;;;;;1.57;1.47;;;;;;;;;;6189594;23;20181;-82
2022/08/30 02:48:57;;;;;;;1.20;1.20;;;;;;;;;;6215965;23;20175;-82
2022/08/30 02:51:40;;;;;;;1.17;1.17;;;;;;;;;;6189271;23;20213;-82
2022/08/30 02:54:09;;;;;;;0.40;0.40;;;;;;;;;;6189043;23;20206;-81
2022/08/30 02:56:37;;;;;;;1.07;1.00;;;;;;;;;;6189965;23;20178;-81
2022/08/30 02:59:06;;;;;;;1.30;1.20;;;;;;;;;;6189330;23;20177;-82
2022/08/30 03:01:35;;;;;;;0.40;0.40;;;;;;;;;;6189199;23;20258;-81
2022/08/30 03:04:05;;;;;;;2.63;2.43;;;;;;;;;;6189159;23;20221;-81
2022/08/30 03:06:34;;;;;;;1.13;1.03;;;;;;;;;;6189373;23;20205;-82
2022/08/30 03:09:02;;;;;;;0.77;0.77;;;;;;;;;;6189409;23;20180;-81
2022/08/30 03:11:31;;;;;;;1.50;1.33;;;;;;;;;;6189392;23;20177;-82
2022/08/30 03:13:59;;;;;;;0.67;0.67;;;;;;;;;;6189032;23;20201;-81
2022/08/30 03:16:28;;;;;;;0.73;0.73;;;;;;;;;;6189157;23;20181;-81
2022/08/30 03:18:56;;;;;;;1.70;1.70;;;;;;;;;;6189473;23;20174;-81
2022/08/30 03:21:26;;;;;;;2.10;1.20;;;;;;;;;;6215490;23;20174;-81
2022/08/30 03:23:55;;;;;;;3.83;1.87;;;;;;;;;;6188944;23;20187;-81
2022/08/30 03:26:23;;;;;;;1.33;0.47;;;;;;;;;;6189182;23;20204;-81
2022/08/30 03:28:52;;;;;;;0.67;0.63;;;;;;;;;;6188987;23;20187;-81
2022/08/30 03:31:20;;;;;;;1.07;1.03;;;;;;;;;;6215464;23;20185;-82
2022/08/30 03:33:49;;;;;;;1.80;1.40;;;;;;;;;;6189092;23;20204;-82
2022/08/30 03:36:18;;;;;;;0.80;0.80;;;;;;;;;;6188884;23;20201;-81
2022/08/30 03:38:48;;;;;;;1.23;1.13;;;;;;;;;;6188699;23;20255;-81
2022/08/30 03:41:17;;;;;;;7.40;1.97;;;;;;;;;;6215496;23;20174;-81
2022/08/30 03:43:46;;;;;;;1.03;1.03;;;;;;;;;;6189064;23;20205;-81
2022/08/30 03:46:15;;;;;;;1.63;1.53;;;;;;;;;;6189555;23;20227;-81
2022/08/30 03:48:43;;;;;;;0.80;0.80;;;;;;;;;;6215337;23;20171;-81
2022/08/30 03:51:12;;;;;;;5.43;3.13;;;;;;;;;;6189325;23;20184;-81
2022/08/30 03:53:40;;;;;;;1.40;1.30;;;;;;;;;;6189060;23;20197;-82
2022/08/30 03:56:10;;;;;;;0.87;0.87;;;;;;;;;;6189126;23;20209;-81
2022/08/30 03:58:41;;;;;;;5.73;1.77;;;;;;;;;;6189198;23;20210;-81
2022/08/30 04:01:09;;;;;;;1.63;1.57;;;;;;;;;;6189216;23;20182;-81
2022/08/30 04:03:38;;;;;;;3.40;3.10;;;;;;;;;;6190085;23;20174;-81
2022/08/30 04:06:06;;;;;;;2.37;1.90;;;;;;;;;;6217713;23;20174;-81
2022/08/30 04:08:35;;;;;;;1.40;1.30;;;;;;;;;;6190910;23;20181;-81
2022/08/30 04:11:03;;;;;;;2.13;1.90;;;;;;;;;;6190713;23;20178;-81
2022/08/30 04:13:34;;;;;;;1.03;0.93;;;;;;;;;;6217176;23;20178;-81
2022/08/30 04:16:03;;;;;;;1.43;1.23;;;;;;;;;;6216888;23;20183;-81
2022/08/30 04:18:34;;;;;;;3.57;2.07;;;;;;;;;;6216809;23;20236;-82
2022/08/30 04:21:03;;;;;;;3.13;2.43;;;;;;;;;;6190794;23;20174;-81
2022/08/30 04:23:31;;;;;;;1.70;1.60;;;;;;;;;;6190557;23;20268;-81
2022/08/30 04:26:00;;;;;;;0.70;0.70;;;;;;;;;;6190369;23;20182;-81
2022/08/30 04:28:29;;;;;;;1.73;1.53;;;;;;;;;;6190407;23;20182;-81
2022/08/30 04:30:59;;;;;;;1.60;0.83;;;;;;;;;;6190575;23;20180;-81
2022/08/30 04:33:27;;;;;;;1.33;1.23;;;;;;;;;;6216707;23;20238;-81
2022/08/30 04:35:56;;;;;;;2.07;1.90;;;;;;;;;;6190648;23;20295;-82
2022/08/30 04:38:24;;;;;;;1.70;1.60;;;;;;;;;;6216794;23;20184;-82
2022/08/30 04:40:57;;;;;;;2.30;1.60;;;;;;;;;;6216732;23;20178;-82
2022/08/30 04:43:26;;;;;;;1.73;1.60;;;;;;;;;;6189899;23;20221;-82
2022/08/30 04:45:55;;;;;;;1.60;1.27;;;;;;;;;;6190743;23;20176;-82
2022/08/30 04:48:25;;;;;;;2.07;1.90;;;;;;;;;;6216795;23;20169;-81
2022/08/30 04:50:56;;;;;;;0.70;0.70;;;;;;;;;;6190059;23;20173;-82
2022/08/30 04:53:25;;;;;;;1.70;1.60;;;;;;;;;;6216786;23;20167;-81
2022/08/30 04:55:53;;;;;;;2.33;2.03;;;;;;;;;;6190157;23;20202;-81
2022/08/30 04:58:22;;;;;;;2.60;2.30;;;;;;;;;;6216799;23;20171;-81
2022/08/30 05:00:50;;;;;;;0.63;0.63;;;;;;;;;;6190591;23;20186;-83
2022/08/30 05:03:19;;;;;;;1.37;1.33;;;;;;;;;;6190476;23;20206;-81
2022/08/30 05:05:49;;;;;;;1.83;1.43;;;;;;;;;;6216653;23;20231;-81
2022/08/30 05:08:19;;;;;;;4.07;2.77;;;;;;;;;;6190074;23;20217;-81
2022/08/30 05:10:52;;;;;;;1.50;1.40;;;;;;;;;;6216534;23;20169;-81
2022/08/30 05:13:21;;;;;;;7.87;2.50;;;;;;;;;;6189987;23;20182;-81
2022/08/30 05:16:03;;;;;;;1.90;1.30;;;;;;;;;;6190187;23;20263;-81
2022/08/30 05:18:32;;;;;;;1.00;1.00;;;;;;;;;;6189947;23;20178;-81
2022/08/30 05:21:07;;;;;;;1.73;1.63;;;;;;;;;;6216368;23;20166;-81
2022/08/30 05:23:36;;;;;;;1.47;1.37;;;;;;;;;;6190048;23;20178;-82
2022/08/30 05:26:06;;;;;;;0.50;0.50;;;;;;;;;;6190295;23;20173;-81
2022/08/30 05:28:35;;;;;;;0.80;0.80;;;;;;;;;;6190000;23;20189;-81
2022/08/30 05:31:03;;;;;;;1.20;1.13;;;;;;;;;;6216476;23;20181;-82
2022/08/30 05:33:41;;;;;;;0.63;0.63;;;;;;;;;;6190030;23;20190;-83
2022/08/30 05:36:12;;;;;;;0.40;0.40;;;;;;;;;;6216076;23;20202;-81
2022/08/30 05:38:40;;;;;;;2.00;1.87;;;;;;;;;;6189482;23;20182;-81
2022/08/30 05:41:09;;;;;;;3.17;1.80;;;;;;;;;;6215962;23;20177;-81
2022/08/30 05:43:38;;;;;;;1.80;1.67;;;;;;;;;;6189672;23;20210;-81
2022/08/30 05:46:09;;;;;;;1.37;1.30;;;;;;;;;;6189727;23;20171;-81
2022/08/30 05:48:38;;;;;;;2.20;2.10;;;;;;;;;;6216506;23;20189;-81
2022/08/30 05:51:08;;;;;;;2.37;2.17;;;;;;;;;;6189641;23;20178;-81
2022/08/30 05:53:38;;;;;;;1.37;1.27;;;;;;;;;;6189639;23;20183;-81
2022/08/30 05:56:08;;;;;;;4.03;3.73;;;;;;;;;;6189420;23;20205;-81
2022/08/30 05:58:39;;;;;;;1.40;1.30;;;;;;;;;;6215920;23;20170;-81
2022/08/30 06:01:07;;;;;;;2.13;1.83;;;;;;;;;;6189968;23;20178;-81
2022/08/30 06:03:36;;;;;;;1.67;1.57;;;;;;;;;;6216197;23;20175;-81
2022/08/30 06:06:05;;;;;;;1.63;1.53;;;;;;;;;;6189351;23;20253;-81
2022/08/30 06:08:33;;;;;;;2.07;1.93;;;;;;;;;;6189743;23;20177;-81
2022/08/30 06:11:03;;;;;;;2.47;2.27;;;;;;;;;;6189849;23;20265;-81
2022/08/30 06:13:32;;;;;;;2.93;2.20;;;;;;;;;;6215939;23;20170;-83
2022/08/30 06:16:00;;;;;;;3.33;3.00;;;;;;;;;;6215561;23;20195;-83
2022/08/30 06:18:30;;;;;;;2.83;1.97;;;;;;;;;;6189777;23;20178;-83
2022/08/30 06:20:59;;;;;;;3.90;3.20;;;;;;;;;;6189147;23;20204;-83
2022/08/30 06:23:27;;;;;;;2.53;2.40;;;;;;;;;;6216002;23;20247;-83
2022/08/30 06:25:56;;;;;;;1.77;1.67;;;;;;;;;;6189408;23;20306;-83
2022/08/30 06:28:27;;;;;;;7.70;3.00;;;;;;;;;;6189397;23;20205;-83
2022/08/30 06:30:56;;;;;;;4.47;2.87;;;;;;;;;;6188985;23;20175;-83
2022/08/30 06:33:26;;;;;;;2.57;2.37;;;;;;;;;;6215778;23;20167;-83
2022/08/30 06:35:54;;;;;;;2.93;2.63;;;;;;;;;;6189216;23;20194;-83
2022/08/30 06:38:27;;;;;;;2.90;1.83;;;;;;;;;;6189248;23;20205;-83
2022/08/30 06:40:55;;;;;;;3.30;2.43;;;;;;;;;;6189434;23;20174;-82
2022/08/30 06:43:25;;;;;;;4.60;3.77;;;;;;;;;;6189364;23;20217;-82
2022/08/30 06:46:01;;;;;;;5.60;3.70;;;;;;;;;;6189160;23;20174;-82
2022/08/30 06:48:33;;;;;;;0.40;0.40;;;;;;;;;;6215864;23;20166;-82
2022/08/30 06:51:01;;;;;;;1.67;1.57;;;;;;;;;;6215356;23;20175;-82
2022/08/30 06:53:30;;;;;;;2.30;2.10;;;;;;;;;;6189499;23;20187;-82
2022/08/30 06:56:00;;;;;;;1.57;1.30;;;;;;;;;;6188771;23;20198;-82
2022/08/30 06:58:31;;;;;;;1.43;1.33;;;;;;;;;;6189175;23;20229;-81
2022/08/30 07:00:59;;;;;;;2.40;2.20;;;;;;;;;;6215660;23;20181;-81
2022/08/30 07:03:35;;;;;;;4.27;3.20;;;;;;;;;;6212775;23;20171;-81
2022/08/30 07:06:07;;;;;;;5.17;3.80;;;;;;;;;;6188654;23;20202;-81
2022/08/30 07:08:36;;;;;;;1.70;1.60;;;;;;;;;;6188765;23;20175;-81
2022/08/30 07:11:06;;;;;;;2.90;2.60;;;;;;;;;;6188342;23;20225;-80
2022/08/30 07:13:36;;;;;;;2.37;2.00;;;;;;;;;;6215160;23;20249;-80
2022/08/30 07:16:09;;;;;;;0.83;0.83;;;;;;;;;;6186607;23;20181;-80
2022/08/30 07:18:54;;;;;;;1.93;1.23;;;;;;;;;;6189438;23;20183;-80
2022/08/30 07:21:24;;;;;;;1.10;1.10;;;;;;;;;;6214066;23;20253;-80
2022/08/30 07:23:58;;;;;;;5.63;2.30;;;;;;;;;;6210628;23;20185;-80
2022/08/30 07:26:27;;;;;;;2.63;2.03;;;;;;;;;;6210959;23;20181;-80
2022/08/30 07:28:58;;;;;;;5.00;2.23;;;;;;;;;;6186176;23;20179;-81
2022/08/30 07:31:31;;;;;;;1.90;1.63;;;;;;;;;;6210396;23;20172;-80
2022/08/30 07:34:06;;;;;;;1.17;1.07;;;;;;;;;;6184813;23;20234;-82
2022/08/30 07:36:37;;;;;;;5.20;1.50;;;;;;;;;;6186922;23;20201;-81
2022/08/30 07:39:07;;;;;;;1.57;1.47;;;;;;;;;;6186203;23;20185;-81
2022/08/30 07:41:38;;;;;;;1.43;1.33;;;;;;;;;;6187991;23;20177;-81
2022/08/30 07:44:37;;;;;;;2.27;1.33;;;;;;;;;;6156065;23;20267;-82
2022/08/30 07:47:08;;;;;;;2.57;1.73;;;;;;;;;;6182666;23;20245;-82
2022/08/30 07:49:48;;;;;;;1.47;1.10;;;;;;;;;;6183004;23;20177;-82
2022/08/30 07:52:17;;;;;;;1.30;1.20;;;;;;;;;;6155904;23;20182;-82
2022/08/30 07:54:45;;;;;;;0.80;0.80;;;;;;;;;;6182677;23;20284;-82
2022/08/30 07:57:23;;;;;;;0.83;0.83;;;;;;;;;;6157247;23;20194;-83
2022/08/30 07:59:57;;;;;;;1.17;1.07;;;;;;;;;;6182708;23;20195;-85
2022/08/30 08:02:26;;;;;;;1.27;0.90;;;;;;;;;;6181935;23;20167;-85
2022/08/30 08:04:55;;;;;;;7.93;0.83;;;;;;;;;;6156927;23;20183;-86
2022/08/30 08:07:24;;;;;;;3.37;1.63;;;;;;;;;;6155946;23;20175;-85
2022/08/30 08:09:54;;;;;;;2.37;0.80;;;;;;;;;;6183133;23;20247;-83
2022/08/30 08:12:26;;;;;;;1.17;1.10;;;;;;;;;;6154122;23;20272;-82
2022/08/30 08:14:56;;;;;;;0.70;0.70;;;;;;;;;;6182417;23;20172;-82
2022/08/30 08:17:24;;;;;;;2.43;1.00;;;;;;;;;;6152086;23;20229;-84
2022/08/30 08:19:57;;;;;;;1.67;1.07;;;;;;;;;;6152892;23;20176;-82
2022/08/30 08:22:26;;;;;;;5.40;1.47;;;;;;;;;;6156215;23;20207;-84
2022/08/30 08:24:57;;;;;;;0.70;0.70;;;;;;;;;;6155996;23;20186;-83
2022/08/30 08:27:29;;;;;;;1.20;0.90;;;;;;;;;;6184290;23;20219;-83
2022/08/30 08:29:59;;;;;;;0.70;0.70;;;;;;;;;;6155256;23;20181;-85
2022/08/30 08:32:27;;;;;;;1.00;1.00;;;;;;;;;;6157420;23;20183;-85
2022/08/30 08:35:05;;;;;;;1.47;1.20;;;;;;;;;;6157354;23;20202;-82
2022/08/30 08:37:34;;;;;;;2.87;1.50;;;;;;;;;;6180869;23;20220;-85
2022/08/30 08:40:11;;;;;;;2.63;1.57;;;;;;;;;;6182319;23;20182;-83
2022/08/30 08:43:02;;;;;;;0.50;0.50;;;;;;;;;;6192574;23;20201;-83
2022/08/30 08:45:37;;;;;;;1.77;1.10;;;;;;;;;;6186249;23;20239;-81
2022/08/30 08:48:11;;;;;;;2.23;1.40;;;;;;;;;;6184755;23;20174;-82
2022/08/30 08:53:33;;;;;;;0.63;0.63;;;;;;;;;;6161717;23;20211;-82
2022/08/30 08:53:35;;;;;;;0.83;0.83;;;;;;;;;;6213692;23;20197;-82
2022/08/30 08:56:15;;;;;;;0.70;0.70;;;;;;;;;;6186022;23;20212;-81
2022/08/30 08:58:44;;;;;;;1.13;1.10;;;;;;;;;;6184284;23;20230;-81
2022/08/30 09:01:15;;;;;;;4.17;1.37;;;;;;;;;;6188320;23;20181;-81
2022/08/30 09:03:46;;;;;;;2.07;1.63;;;;;;;;;;6213752;23;20172;-81
2022/08/30 09:06:31;;;;;;;0.73;0.67;;;;;;;;;;6187368;23;20185;-83
2022/08/30 09:09:02;;;;;;;2.53;1.57;;;;;;;;;;6188550;23;20177;-86
2022/08/30 09:11:33;;;;;;;3.27;1.67;;;;;;;;;;6213693;23;20173;-83
2022/08/30 09:14:07;;;;;;;0.90;0.90;;;;;;;;;;6187259;23;20179;-81
2022/08/30 09:16:54;;;;;;;1.27;1.07;;;;;;;;;;6186318;23;20224;-82
2022/08/30 09:19:32;;;;;;;5.20;1.40;;;;;;;;;;6185800;23;20205;-83
2022/08/30 09:22:08;;;;;;;1.03;1.03;;;;;;;;;;6186011;23;20252;-82
2022/08/30 09:24:43;;;;;;;2.93;1.30;;;;;;;;;;6212466;23;20202;-83
2022/08/30 09:27:17;;;;;;;1.03;0.93;;;;;;;;;;6186514;23;20182;-82
2022/08/30 09:30:02;;;;;;;1.57;1.47;;;;;;;;;;6212434;23;20172;-82
2022/08/30 09:32:34;;;;;;;0.53;0.53;;;;;;;;;;6185340;23;20214;-81
2022/08/30 09:35:04;;;;;;;0.83;0.83;;;;;;;;;;6212575;23;20198;-80
2022/08/30 09:37:34;;;;;;;3.03;1.67;;;;;;;;;;6213001;23;20219;-80
2022/08/30 09:40:26;;;;;;;;;;;;;;;;;;;;;
2022/08/30 09:43:06;;;;;;;2.30;1.47;;;;;;;;;;6184683;23;20214;-80
2022/08/30 09:45:37;;;;;;;2.60;1.50;;;;;;;;;;6186881;23;20183;-80
2022/08/30 09:48:22;;;;;;;2.30;1.20;;;;;;;;;;6185012;23;20258;-81
2022/08/30 09:51:00;;;;;;;1.13;1.07;;;;;;;;;;6182865;23;20184;-81
2022/08/30 09:53:33;;;;;;;2.63;2.10;;;;;;;;;;6212753;23;20208;-81
2022/08/30 09:56:07;;;;;;;2.93;1.47;;;;;;;;;;6185719;23;20186;-81
2022/08/30 09:58:44;;;;;;;3.53;1.70;;;;;;;;;;6212732;23;20571;-81
2022/08/30 10:01:32;;;;;;;1.23;1.13;;;;;;;;;;6185138;23;20227;-80
2022/08/30 10:04:06;;;;;;;1.37;1.30;;;;;;;;;;6212186;23;20197;-79
2022/08/30 10:06:54;;;;;;;;;;;;;;;;;;;;;
2022/08/30 10:09:25;;;;;;;3.80;2.20;;;;;;;;;;6206807;23;20199;-80
2022/08/30 10:12:00;;;;;;;2.50;1.50;;;;;;;;;;6186206;23;20177;-81
2022/08/30 10:14:44;;;;;;;1.93;1.50;;;;;;;;;;6186724;23;20178;-80
2022/08/30 10:17:19;;;;;;;2.07;1.40;;;;;;;;;;6212957;23;20182;-80
2022/08/30 10:23:21;;;;;;;1.00;1.00;;;;;;;;;;6179424;23;20181;-81
2022/08/30 10:25:52;;;;;;;3.03;1.60;;;;;;;;;;6212229;23;20175;-80
2022/08/30 10:28:25;;;;;;;1.80;1.70;;;;;;;;;;6213608;23;20253;-81
2022/08/30 10:30:57;;;;;;;0.93;0.93;;;;;;;;;;6212782;23;20269;-83
2022/08/30 10:33:28;;;;;;;1.53;1.20;;;;;;;;;;6187866;23;20178;-79
2022/08/30 10:36:00;;;;;;;1.30;1.20;;;;;;;;;;6187304;23;20209;-78
2022/08/30 10:38:59;;;;;;;1.33;1.10;;;;;;;;;;6187218;23;20206;-80
2022/08/30 10:41:45;;;;;;;2.10;1.50;;;;;;;;;;6185861;23;20182;-80
2022/08/30 10:44:28;;;;;;;2.37;1.07;;;;;;;;;;6184914;23;20210;-80
2022/08/30 10:47:30;;;;;;;1.07;0.93;;;;;;;;;;6182236;23;20224;-80
2022/08/30 10:50:39;;;;;;;1.43;1.23;;;;;;;;;;6194963;23;20186;-80
2022/08/30 10:53:10;;;;;;;4.30;1.23;;;;;;;;;;6186443;23;20238;-80
2022/08/30 11:02:56;;;;;;;4.57;1.27;;;;;;;;;;6186559;23;20182;-80
2022/08/30 11:05:38;;;;;;;1.27;1.17;;;;;;;;;;6165465;23;20185;-78
2022/08/30 11:08:14;;;;;;;1.43;1.33;;;;;;;;;;6212578;23;20261;-80
2022/08/30 11:10:55;;;;;;;2.70;1.70;;;;;;;;;;6184640;23;20229;-80
2022/08/30 11:13:31;;;;;;;1.63;1.53;;;;;;;;;;6210654;23;20180;-80
2022/08/30 11:16:05;;;;;;;1.37;0.93;;;;;;;;;;6213132;23;20274;-80
2022/08/30 11:18:43;;;;;;;0.70;0.70;;;;;;;;;;6186378;23;20191;-79
2022/08/30 11:21:35;;;;;;;5.43;1.50;;;;;;;;;;6185545;23;20181;-80
2022/08/30 11:24:07;;;;;;;4.60;2.10;;;;;;;;;;6184096;23;20186;-80
2022/08/30 11:26:53;;;;;;;1.10;1.00;;;;;;;;;;6186137;23;20176;-79
2022/08/30 11:29:45;;;;;;;1.07;0.97;;;;;;;;;;6166776;23;20171;-80
2022/08/30 11:32:44;;;;;;;1.60;1.37;;;;;;;;;;6184844;23;20188;-80
2022/08/30 11:35:33;;;;;;;3.07;1.23;;;;;;;;;;6185435;23;20196;-80
2022/08/30 11:38:11;;;;;;;0.90;0.90;;;;;;;;;;6214001;23;20179;-80
2022/08/30 11:40:52;;;;;;;1.30;1.20;;;;;;;;;;6213200;23;20181;-81
2022/08/30 11:43:42;;;;;;;1.63;1.33;;;;;;;;;;6212145;23;20208;-80
2022/08/30 11:46:19;;;;;;;1.40;1.30;;;;;;;;;;6185717;23;20264;-80
2022/08/30 11:48:50;;;;;;;1.93;1.33;;;;;;;;;;6184995;23;20180;-80
2022/08/30 11:51:43;;;;;;;1.87;1.63;;;;;;;;;;6186540;23;20189;-80
2022/08/30 11:54:20;;;;;;;1.00;1.00;;;;;;;;;;6185554;23;20177;-81
2022/08/30 11:56:54;;;;;;;1.47;1.37;;;;;;;;;;6185735;23;20273;-80
2022/08/30 11:59:27;;;;;;;1.73;1.30;;;;;;;;;;6185249;23;20297;-80
2022/08/30 12:01:56;;;;;;;2.23;1.93;;;;;;;;;;6184734;23;20277;-80
2022/08/30 12:04:29;;;;;;;2.17;1.87;;;;;;;;;;6184275;23;20196;-81
2022/08/30 12:07:03;;;;;;;2.53;1.97;;;;;;;;;;6186108;23;20212;-80
2022/08/30 12:10:02;;;;;;;0.70;0.70;;;;;;;;;;6213250;23;20161;-80
2022/08/30 12:12:47;;;;;;;1.30;1.20;;;;;;;;;;6186971;23;20181;-81
2022/08/30 12:15:48;;;;;;;1.70;1.60;;;;;;;;;;6215145;23;20215;-82
2022/08/30 12:18:28;;;;;;;1.33;1.17;;;;;;;;;;6186752;23;20184;-81
2022/08/30 12:21:11;;;;;;;1.60;1.50;;;;;;;;;;6209967;23;20185;-81
2022/08/30 12:23:42;;;;;;;3.33;1.70;;;;;;;;;;6185246;23;20184;-80
2022/08/30 12:26:21;;;;;;;1.40;1.23;;;;;;;;;;6186823;23;20178;-80
2022/08/30 12:28:51;;;;;;;1.57;1.47;;;;;;;;;;6189494;23;20184;-80
2022/08/30 12:31:21;;;;;;;1.20;1.10;;;;;;;;;;6189180;23;20179;-80
2022/08/30 12:33:53;;;;;;;1.30;1.20;;;;;;;;;;6189430;23;20263;-80
2022/08/30 12:36:32;;;;;;;4.97;1.90;;;;;;;;;;6189643;23;20209;-80
2022/08/30 12:39:12;;;;;;;1.40;1.30;;;;;;;;;;6213751;23;20252;-80
2022/08/30 12:41:42;;;;;;;1.53;1.43;;;;;;;;;;6188247;23;20176;-80
2022/08/30 12:44:15;;;;;;;2.43;2.23;;;;;;;;;;6184468;23;20218;-80
2022/08/30 12:46:47;;;;;;;1.53;1.40;;;;;;;;;;6185867;23;20175;-80
2022/08/30 12:49:16;;;;;;;0.83;0.83;;;;;;;;;;6214094;23;20197;-79
2022/08/30 12:51:48;;;;;;;0.87;0.87;;;;;;;;;;6187443;23;20264;-81
2022/08/30 12:54:19;;;;;;;2.57;1.30;;;;;;;;;;6212486;23;20169;-81
2022/08/30 12:56:56;;;;;;;3.37;1.43;;;;;;;;;;6188282;23;20192;-80
2022/08/30 12:59:43;;;;;;;1.23;1.20;;;;;;;;;;6186741;23;20217;-81
2022/08/30 13:02:22;;;;;;;1.70;1.13;;;;;;;;;;6187512;23;20172;-81
2022/08/30 13:04:53;;;;;;;1.90;1.40;;;;;;;;;;6187530;23;20184;-80
2022/08/30 13:07:26;;;;;;;2.53;1.27;;;;;;;;;;6190199;23;20181;-80
2022/08/30 13:10:08;;;;;;;4.37;1.80;;;;;;;;;;6190178;23;20255;-80
2022/08/30 13:12:48;;;;;;;2.70;1.20;;;;;;;;;;6189461;23;20186;-80
2022/08/30 13:15:19;;;;;;;2.53;1.30;;;;;;;;;;6216037;23;20171;-80
2022/08/30 13:17:49;;;;;;;1.60;1.43;;;;;;;;;;6216334;23;20172;-80
2022/08/30 13:20:25;;;;;;;1.53;1.30;;;;;;;;;;6189821;23;20218;-81
2022/08/30 13:23:09;;;;;;;1.43;1.33;;;;;;;;;;6190078;23;20204;-80
2022/08/30 13:25:42;;;;;;;0.80;0.80;;;;;;;;;;6216397;23;20172;-80
2022/08/30 13:28:12;;;;;;;1.70;1.23;;;;;;;;;;6190185;23;20269;-81
2022/08/30 13:30:40;;;;;;;1.20;0.90;;;;;;;;;;6215698;23;20197;-82
2022/08/30 13:33:34;;;;;;;1.67;1.57;;;;;;;;;;6216611;23;20239;-82
2022/08/30 13:36:04;;;;;;;0.77;0.77;;;;;;;;;;6188383;23;20211;-83
2022/08/30 13:38:33;;;;;;;2.00;1.27;;;;;;;;;;6189161;23;20305;-84
2022/08/30 13:41:11;;;;;;;1.70;1.23;;;;;;;;;;6215763;23;20215;-83
2022/08/30 13:43:44;;;;;;;1.73;0.90;;;;;;;;;;6216199;23;20201;-83
2022/08/30 13:46:35;;;;;;;2.13;1.50;;;;;;;;;;6215328;23;20174;-83
2022/08/30 13:49:09;;;;;;;1.63;1.13;;;;;;;;;;6189764;23;20178;-84
2022/08/30 13:51:58;;;;;;;1.60;1.30;;;;;;;;;;6188503;23;20189;-84
2022/08/30 13:54:52;;;;;;;1.03;1.03;;;;;;;;;;6189121;23;20270;-84
2022/08/30 13:57:25;;;;;;;0.50;0.50;;;;;;;;;;6189499;23;20228;-84
2022/08/30 14:00:17;;;;;;;1.20;0.90;;;;;;;;;;6188394;23;20245;-83
2022/08/30 14:02:47;;;;;;;1.63;1.07;;;;;;;;;;6188850;23;20206;-83
2022/08/30 14:05:26;;;;;;;1.10;1.03;;;;;;;;;;6188887;23;20210;-82
2022/08/30 14:08:16;;;;;;;0.80;0.80;;;;;;;;;;6188690;23;20186;-84
2022/08/30 14:11:05;;;;;;;1.03;0.80;;;;;;;;;;6188818;23;20171;-82
2022/08/30 14:13:33;;;;;;;1.63;1.53;;;;;;;;;;6188425;23;20182;-83
2022/08/30 14:16:04;;;;;;;1.00;1.00;;;;;;;;;;6188626;23;20174;-83
2022/08/30 14:18:53;;;;;;;4.83;1.70;;;;;;;;;;6214915;23;20181;-83
2022/08/30 14:27:50;;;;;;;0.97;0.97;;;;;;;;;;6177743;23;20271;-83
2022/08/30 14:30:22;;;;;;;1.23;1.23;;;;;;;;;;6187853;23;20172;-85
2022/08/30 14:32:50;;;;;;;0.90;0.90;;;;;;;;;;6214125;23;20166;-84
2022/08/30 14:35:19;;;;;;;0.53;0.53;;;;;;;;;;6187519;23;20202;-84
2022/08/30 14:37:52;;;;;;;0.83;0.83;;;;;;;;;;6187640;23;20186;-83
2022/08/30 14:40:23;;;;;;;2.30;1.60;;;;;;;;;;6213494;23;20184;-84
2022/08/30 14:42:55;;;;;;;1.17;1.10;;;;;;;;;;6187520;23;20239;-85
2022/08/30 14:45:25;;;;;;;3.07;1.10;;;;;;;;;;6187731;23;20178;-83
2022/08/30 14:47:54;;;;;;;0.80;0.80;;;;;;;;;;6214581;23;20209;-82
2022/08/30 14:50:22;;;;;;;2.23;1.93;;;;;;;;;;6187543;23;20204;-84
2022/08/30 14:52:55;;;;;;;1.27;0.90;;;;;;;;;;6213618;23;20193;-84
2022/08/30 14:55:27;;;;;;;0.80;0.80;;;;;;;;;;6187568;23;20180;-83
2022/08/30 14:57:58;;;;;;;0.70;0.70;;;;;;;;;;6187121;23;20181;-82
2022/08/30 15:00:27;;;;;;;0.80;0.80;;;;;;;;;;6187624;23;20194;-83
2022/08/30 15:02:57;;;;;;;1.47;0.70;;;;;;;;;;6186516;23;20175;-83
2022/08/30 15:05:26;;;;;;;0.90;0.90;;;;;;;;;;6188025;23;20179;-82
2022/08/30 15:07:55;;;;;;;0.70;0.70;;;;;;;;;;6188705;23;20177;-82
2022/08/30 15:10:24;;;;;;;1.10;1.00;;;;;;;;;;6189503;23;20189;-83
2022/08/30 15:12:53;;;;;;;1.17;1.10;;;;;;;;;;6188899;23;20186;-83
2022/08/30 15:15:24;;;;;;;1.43;1.17;;;;;;;;;;6189952;23;20170;-82
2022/08/30 15:17:52;;;;;;;0.70;0.70;;;;;;;;;;6214457;23;20227;-82
2022/08/30 15:20:21;;;;;;;0.97;0.90;;;;;;;;;;6187601;23;20205;-84
2022/08/30 15:22:49;;;;;;;0.53;0.53;;;;;;;;;;6189614;23;20197;-84
2022/08/30 15:25:19;;;;;;;0.87;0.87;;;;;;;;;;6189957;23;20179;-84
2022/08/30 15:27:49;;;;;;;0.70;0.70;;;;;;;;;;6216324;23;20167;-84
2022/08/30 15:30:19;;;;;;;1.67;0.90;;;;;;;;;;6188692;23;20189;-84
2022/08/30 15:32:49;;;;;;;0.93;0.80;;;;;;;;;;6190346;23;20211;-84
2022/08/30 15:35:18;;;;;;;0.60;0.60;;;;;;;;;;6191178;23;20194;-84
2022/08/30 15:37:46;;;;;;;0.80;0.80;;;;;;;;;;6189771;23;20205;-83